Time;durP1;ratioP1;P1;durP2;ratioP2;P2;SDS_P1;SDS_P2;PMS_P1;PMS_P2;Temp;Humidity;BMP_temperature;BMP_pressure;BME280_temperature;BME280_humidity;BME280_pressure;Samples;Min_cycle;Max_cycle;Signal;HPM_P1;HPM_P2
2023/04/12 00:00:28;;;;;;;6.45;1.85;;;;;;;11.00;100.00;100462.84;5241864;28;20017;-68
2023/04/12 00:03:01;;;;;;;5.72;1.95;;;;;;;10.73;100.00;100445.25;5244338;28;20671;-68
2023/04/12 00:05:33;;;;;;;6.82;2.22;;;;;;;10.78;100.00;100440.41;5244747;28;20053;-69
2023/04/12 00:08:05;;;;;;;8.23;2.88;;;;;;;10.71;100.00;100437.50;5242840;28;20465;-69
2023/04/12 00:10:36;;;;;;;7.95;1.75;;;;;;;10.71;100.00;100432.28;5246361;28;20036;-69
2023/04/12 00:13:07;;;;;;;6.13;1.52;;;;;;;10.70;100.00;100425.38;5244061;28;20035;-69
2023/04/12 00:15:39;;;;;;;6.20;1.58;;;;;;;10.82;100.00;100415.56;5243653;28;20021;-69
2023/04/12 00:18:10;;;;;;;5.53;1.60;;;;;;;10.75;100.00;100417.09;5243773;28;20321;-69
2023/04/12 00:20:42;;;;;;;7.13;2.40;;;;;;;10.72;100.00;100420.03;5242249;28;20431;-69
2023/04/12 00:23:14;;;;;;;6.03;1.50;;;;;;;10.70;100.00;100400.97;5245358;28;20123;-69
2023/04/12 00:25:45;;;;;;;4.65;1.48;;;;;;;10.65;100.00;100390.13;5242167;28;20025;-69
2023/04/12 00:28:17;;;;;;;5.35;1.38;;;;;;;10.64;100.00;100380.59;5243242;28;20314;-69
2023/04/12 00:30:49;;;;;;;4.18;1.23;;;;;;;10.63;100.00;100368.47;5245110;28;20033;-69
2023/04/12 00:33:20;;;;;;;6.28;1.50;;;;;;;10.66;100.00;100362.94;5243987;28;20036;-69
2023/04/12 00:35:51;;;;;;;5.32;1.40;;;;;;;10.57;100.00;100354.16;5244602;28;20025;-69
2023/04/12 00:38:22;;;;;;;5.00;1.83;;;;;;;10.56;100.00;100344.63;5244914;28;20059;-69
2023/04/12 00:40:54;;;;;;;7.82;1.80;;;;;;;10.52;100.00;100335.41;5243613;28;20490;-69
2023/04/12 00:43:26;;;;;;;3.50;1.48;;;;;;;10.52;100.00;100329.34;5242381;28;20051;-69
2023/04/12 00:45:57;;;;;;;5.78;1.67;;;;;;;10.54;100.00;100332.66;5243370;28;20075;-69
2023/04/12 00:48:30;;;;;;;4.78;1.73;;;;;;;10.73;100.00;100329.97;5241599;28;20285;-69
2023/04/12 00:51:03;;;;;;;5.28;1.38;;;;;;;10.61;100.00;100323.25;5243702;28;20052;-68
2023/04/12 00:53:36;;;;;;;4.97;1.63;;;;;;;10.54;100.00;100312.53;5244444;28;20016;-69
2023/04/12 00:56:10;;;;;;;;;;;;;;;11.10;100.00;100302.88;5242558;28;20024;-69
2023/04/12 00:58:41;;;;;;;4.55;1.67;;;;;;;10.51;100.00;100280.56;5241228;28;20046;-69
2023/04/12 01:01:15;;;;;;;5.03;1.73;;;;;;;10.55;100.00;100271.44;5241717;28;20542;-69
2023/04/12 01:03:52;;;;;;;5.40;1.77;;;;;;;10.60;100.00;100271.81;5243205;28;20113;-69
2023/04/12 01:06:33;;;;;;;7.38;1.80;;;;;;;10.49;100.00;100275.44;5238226;28;20536;-69
2023/04/12 01:09:22;;;;;;;6.28;1.98;;;;;;;10.61;100.00;100263.00;5241723;28;20707;-69
2023/04/12 01:12:17;;;;;;;4.57;1.40;;;;;;;10.84;100.00;100248.56;5243217;28;20029;-69
2023/04/12 01:14:59;;;;;;;5.38;1.40;;;;;;;10.61;100.00;100242.88;5239698;28;20043;-69
2023/04/12 01:17:37;;;;;;;5.55;1.73;;;;;;;10.61;100.00;100232.41;5237353;28;20041;-69
2023/04/12 01:20:15;;;;;;;8.20;2.10;;;;;;;10.61;100.00;100219.31;5241212;28;20706;-69
2023/04/12 01:23:13;;;;;;;6.10;1.55;;;;;;;10.83;100.00;100207.56;5241930;28;20128;-69
2023/04/12 01:25:47;;;;;;;5.65;1.63;;;;;;;10.72;100.00;100205.19;5242574;28;20034;-69
2023/04/12 01:28:22;;;;;;;4.80;1.40;;;;;;;10.58;100.00;100193.41;5241797;28;20423;-69
2023/04/12 01:30:54;;;;;;;4.45;1.73;;;;;;;10.48;100.00;100188.19;5240311;28;20086;-69
2023/04/12 01:33:30;;;;;;;4.43;1.75;;;;;;;10.48;100.00;100182.94;5241814;28;20033;-69
2023/04/12 01:36:09;;;;;;;4.57;1.67;;;;;;;10.60;100.00;100180.13;5245748;28;20124;-69
2023/04/12 01:38:42;;;;;;;5.72;1.88;;;;;;;10.47;100.00;100170.03;5242605;28;20218;-69
2023/04/12 01:41:14;;;;;;;7.82;1.50;;;;;;;10.36;100.00;100160.56;5241179;28;20045;-68
2023/04/12 01:43:46;;;;;;;5.45;1.88;;;;;;;10.33;100.00;100147.75;5242362;28;20033;-69
2023/04/12 01:46:21;;;;;;;3.92;1.40;;;;;;;10.46;100.00;100147.44;5241355;28;20025;-68
2023/04/12 01:48:53;;;;;;;5.90;1.83;;;;;;;10.42;100.00;100146.06;5240782;28;20039;-68
2023/04/12 01:51:41;;;;;;;5.22;1.63;;;;;;;10.43;100.00;100153.78;5238756;28;20490;-68
2023/04/12 01:54:20;;;;;;;6.28;1.83;;;;;;;10.44;100.00;100150.16;5240392;28;20064;-68
2023/04/12 01:57:01;;;;;;;5.00;1.70;;;;;;;10.55;100.00;100128.19;5236060;28;20519;-68
2023/04/12 01:59:39;;;;;;;7.15;1.75;;;;;;;10.40;100.00;100120.00;5238600;28;20025;-68
2023/04/12 02:02:12;;;;;;;5.22;1.25;;;;;;;10.36;100.00;100100.34;5239706;28;20991;-68
2023/04/12 02:04:44;;;;;;;3.03;1.60;;;;;;;10.35;100.00;100101.31;5239889;28;20546;-68
2023/04/12 02:07:17;;;;;;;6.13;2.05;;;;;;;10.28;100.00;100097.63;5238573;28;20033;-69
2023/04/12 02:09:49;;;;;;;7.55;1.80;;;;;;;10.32;100.00;100095.53;5247348;28;20013;-69
2023/04/12 02:12:21;;;;;;;6.07;1.75;;;;;;;10.36;100.00;100100.34;5246956;28;20040;-69
2023/04/12 02:14:53;;;;;;;4.68;1.30;;;;;;;10.37;100.00;100080.22;5243949;28;20025;-69
2023/04/12 02:17:24;;;;;;;5.35;1.67;;;;;;;10.36;100.00;100065.47;5245536;28;20396;-69
2023/04/12 02:19:56;;;;;;;2.78;1.33;;;;;;;10.31;100.00;100050.22;5246629;28;20037;-68
2023/04/12 02:22:27;;;;;;;5.72;1.42;;;;;;;10.26;100.00;100041.97;5248673;28;20099;-69
2023/04/12 02:24:59;;;;;;;3.40;1.40;;;;;;;10.26;100.00;100039.34;5243925;28;20429;-68
2023/04/12 02:27:31;;;;;;;3.97;1.13;;;;;;;10.20;100.00;100040.75;5247211;28;20032;-68
2023/04/12 02:30:03;;;;;;;5.05;1.38;;;;;;;10.29;100.00;100040.84;5244109;28;20544;-69
2023/04/12 02:32:44;;;;;;;4.35;1.52;;;;;;;10.21;100.00;100029.28;5247817;28;20039;-69
2023/04/12 02:35:18;;;;;;;4.03;1.17;;;;;;;10.21;100.00;100018.00;5245215;28;20059;-68
2023/04/12 02:37:50;;;;;;;6.25;1.70;;;;;;;10.20;100.00;100000.66;5243521;28;20024;-68
2023/04/12 02:40:21;;;;;;;4.97;1.58;;;;;;;10.18;100.00;99998.16;5244684;28;20380;-68
2023/04/12 02:42:52;;;;;;;5.75;1.45;;;;;;;10.21;100.00;99997.06;5245009;28;20029;-68
2023/04/12 02:45:24;;;;;;;4.97;1.17;;;;;;;10.21;100.00;99982.16;5242594;28;20790;-68
2023/04/12 02:47:55;;;;;;;4.80;1.45;;;;;;;10.23;100.00;99987.28;5243751;28;20056;-68
2023/04/12 02:50:27;;;;;;;3.50;1.17;;;;;;;10.22;100.00;99980.38;5242675;28;20039;-69
2023/04/12 02:52:59;;;;;;;5.40;1.52;;;;;;;10.25;100.00;99974.88;5247838;28;20037;-69
2023/04/12 02:55:30;;;;;;;3.40;1.27;;;;;;;10.29;100.00;99962.31;5248623;28;20028;-69
2023/04/12 02:58:01;;;;;;;2.60;1.10;;;;;;;10.28;100.00;99951.03;5247705;28;20036;-69
2023/04/12 03:00:32;;;;;;;3.17;1.13;;;;;;;10.27;100.00;99943.34;5245983;28;20059;-69
2023/04/12 03:03:04;;;;;;;4.28;1.45;;;;;;;10.28;100.00;99939.72;5245342;28;20378;-68
2023/04/12 03:05:36;;;;;;;3.20;1.00;;;;;;;10.31;100.00;99942.88;5243708;28;20044;-69
2023/04/12 03:08:08;;;;;;;2.75;0.85;;;;;;;10.33;100.00;99919.16;5244121;28;20116;-69
2023/04/12 03:10:39;;;;;;;4.70;1.30;;;;;;;10.31;100.00;99924.56;5241656;28;20140;-68
2023/04/12 03:13:10;;;;;;;3.38;1.17;;;;;;;10.29;100.00;99900.31;5241962;28;20037;-68
2023/04/12 03:15:44;;;;;;;3.72;1.23;;;;;;;10.26;100.00;99913.69;5248442;28;20061;-68
2023/04/12 03:18:16;;;;;;;5.35;1.20;;;;;;;10.22;100.00;99904.47;5245509;28;20016;-68
2023/04/12 03:20:47;;;;;;;3.67;1.00;;;;;;;10.25;100.00;99896.34;5240254;28;20033;-68
2023/04/12 03:23:19;;;;;;;2.75;0.93;;;;;;;10.30;100.00;99886.22;5246481;28;20033;-68
2023/04/12 03:25:50;;;;;;;2.97;1.10;;;;;;;10.22;100.00;99899.22;5245495;28;20033;-68
2023/04/12 03:28:22;;;;;;;4.88;1.10;;;;;;;10.21;100.00;99887.94;5247727;28;20036;-69
2023/04/12 03:30:53;;;;;;;3.45;1.45;;;;;;;10.24;100.00;99887.66;5244820;28;20115;-69
2023/04/12 03:33:25;;;;;;;4.55;1.38;;;;;;;10.23;100.00;99877.34;5248315;28;20044;-69
2023/04/12 03:35:57;;;;;;;3.15;1.02;;;;;;;10.24;100.00;99873.72;5258340;28;20116;-68
2023/04/12 03:38:28;;;;;;;3.58;1.20;;;;;;;10.17;100.00;99873.50;5243205;28;20025;-68
2023/04/12 03:40:59;;;;;;;3.95;1.05;;;;;;;10.19;100.00;99875.97;5242766;28;20132;-69
2023/04/12 03:43:34;;;;;;;3.13;1.00;;;;;;;10.18;100.00;99871.72;5245015;28;20275;-69
2023/04/12 03:46:06;;;;;;;3.20;0.90;;;;;;;10.17;100.00;99865.66;5244571;28;20290;-69
2023/04/12 03:48:37;;;;;;;3.30;1.05;;;;;;;10.15;100.00;99854.53;5243153;28;20036;-69
2023/04/12 03:51:10;;;;;;;3.30;1.00;;;;;;;10.19;100.00;99844.56;5245833;28;20038;-69
2023/04/12 03:53:42;;;;;;;5.57;1.20;;;;;;;10.17;100.00;99839.50;5245444;28;20028;-69
2023/04/12 03:56:13;;;;;;;3.10;0.90;;;;;;;10.17;100.00;99842.09;5246719;28;20025;-69
2023/04/12 03:58:46;;;;;;;2.40;0.90;;;;;;;10.18;100.00;99835.06;5247345;28;21016;-69
2023/04/12 04:01:17;;;;;;;4.75;0.90;;;;;;;10.17;100.00;99826.41;5242475;28;20021;-69
2023/04/12 04:03:48;;;;;;;3.92;1.00;;;;;;;10.14;100.00;99816.22;5245433;28;20044;-69
2023/04/12 04:06:20;;;;;;;4.80;1.10;;;;;;;10.07;100.00;99812.56;5245023;28;20481;-69
2023/04/12 04:08:51;;;;;;;3.25;0.90;;;;;;;10.07;100.00;99811.75;5246523;28;20482;-69
2023/04/12 04:11:23;;;;;;;3.30;0.98;;;;;;;10.04;100.00;99804.19;5244220;28;20020;-69
2023/04/12 04:13:55;;;;;;;2.80;1.00;;;;;;;10.02;100.00;99804.38;5243618;28;20159;-69
2023/04/12 04:16:28;;;;;;;3.65;1.08;;;;;;;10.12;100.00;99797.25;5244928;28;20021;-68
2023/04/12 04:19:00;;;;;;;3.13;0.90;;;;;;;10.15;100.00;99790.88;5240884;28;20039;-69
2023/04/12 04:21:31;;;;;;;5.00;1.45;;;;;;;10.17;100.00;99786.31;5242296;28;20394;-68
2023/04/12 04:24:03;;;;;;;2.83;0.93;;;;;;;10.03;100.00;99782.44;5242023;28;20049;-69
2023/04/12 04:26:37;;;;;;;3.05;1.08;;;;;;;10.13;100.00;99779.75;5244909;28;20051;-69
2023/04/12 04:29:08;;;;;;;2.25;1.02;;;;;;;10.17;100.00;99773.25;5242920;28;20086;-69
2023/04/12 04:31:39;;;;;;;3.25;0.80;;;;;;;10.13;100.00;99764.88;5244677;28;20284;-69
2023/04/12 04:34:12;;;;;;;1.50;0.82;;;;;;;10.13;100.00;99777.13;5245271;28;20014;-69
2023/04/12 04:36:43;;;;;;;2.20;0.90;;;;;;;10.07;100.00;99754.19;5241768;28;20120;-69
2023/04/12 04:39:15;;;;;;;3.95;0.90;;;;;;;10.17;100.00;99770.63;5246908;28;20039;-69
2023/04/12 04:41:53;;;;;;;3.75;1.05;;;;;;;10.18;100.00;99762.59;5242924;28;20731;-69
2023/04/12 04:44:24;;;;;;;2.10;0.80;;;;;;;10.15;100.00;99754.22;5242373;28;20029;-69
2023/04/12 04:46:58;;;;;;;1.75;0.80;;;;;;;10.22;100.00;99758.69;5244906;28;20029;-69
2023/04/12 04:49:29;;;;;;;;;;;;;;;10.85;100.00;99756.75;5245929;28;20072;-69
2023/04/12 04:52:01;;;;;;;2.53;0.88;;;;;;;10.32;100.00;99756.03;5242717;28;20003;-69
2023/04/12 04:54:32;;;;;;;1.67;0.90;;;;;;;10.22;100.00;99752.66;5243011;28;20537;-69
2023/04/12 04:57:06;;;;;;;3.35;1.40;;;;;;;10.27;100.00;99755.66;5242133;28;20136;-69
2023/04/12 04:59:37;;;;;;;2.88;0.90;;;;;;;10.35;100.00;99753.09;5229896;28;20056;-69
2023/04/12 05:02:09;;;;;;;2.85;1.27;;;;;;;10.37;100.00;99758.97;5238517;28;20033;-69
2023/04/12 05:04:41;;;;;;;3.10;1.40;;;;;;;10.27;100.00;99745.19;5244402;28;20084;-69
2023/04/12 05:07:13;;;;;;;3.35;1.27;;;;;;;10.33;100.00;99752.41;5244846;28;20398;-69
2023/04/12 05:09:44;;;;;;;3.42;1.05;;;;;;;10.37;100.00;99750.31;5244792;28;20029;-69
2023/04/12 05:12:15;;;;;;;3.65;1.10;;;;;;;10.33;100.00;99754.22;5244884;28;20078;-69
2023/04/12 05:14:46;;;;;;;3.35;1.15;;;;;;;10.42;100.00;99750.69;5242053;28;20029;-69
2023/04/12 05:17:18;;;;;;;3.85;1.05;;;;;;;10.39;100.00;99738.72;5244537;28;20025;-69
2023/04/12 05:19:49;;;;;;;2.85;0.93;;;;;;;10.36;100.00;99732.97;5246212;28;20444;-69
2023/04/12 05:22:20;;;;;;;2.60;0.90;;;;;;;10.37;100.00;99726.75;5242568;28;20039;-69
2023/04/12 05:24:52;;;;;;;3.90;1.55;;;;;;;10.42;100.00;99740.22;5243586;28;20116;-69
2023/04/12 05:27:23;;;;;;;2.25;0.90;;;;;;;10.34;100.00;99750.63;5244413;28;20044;-69
2023/04/12 05:29:57;;;;;;;2.22;0.80;;;;;;;10.45;100.00;99737.25;5240848;28;20025;-69
2023/04/12 05:32:29;;;;;;;4.25;1.42;;;;;;;10.30;100.00;99733.56;5238380;28;20117;-69
2023/04/12 05:35:01;;;;;;;4.32;1.20;;;;;;;10.41;100.00;99728.88;5237225;28;20087;-69
2023/04/12 05:37:32;;;;;;;3.40;1.05;;;;;;;10.46;100.00;99725.81;5233294;28;21199;-69
2023/04/12 05:40:08;;;;;;;3.72;1.45;;;;;;;10.52;100.00;99733.03;5238359;28;20079;-69
2023/04/12 05:42:39;;;;;;;3.58;1.38;;;;;;;10.31;100.00;99706.44;5237884;28;20055;-69
2023/04/12 05:45:11;;;;;;;3.40;1.00;;;;;;;10.44;100.00;99722.53;5239735;28;20029;-70
2023/04/12 05:47:42;;;;;;;5.25;1.30;;;;;;;10.50;100.00;99716.69;5240453;28;20401;-69
2023/04/12 05:50:13;;;;;;;2.28;0.98;;;;;;;10.51;100.00;99722.72;5239432;28;20119;-69
2023/04/12 05:52:47;;;;;;;2.85;1.27;;;;;;;10.52;100.00;99725.19;5232026;28;20030;-69
2023/04/12 05:55:18;;;;;;;2.95;1.50;;;;;;;10.55;100.00;99721.44;5219497;28;20407;-69
2023/04/12 05:57:50;;;;;;;1.77;1.08;;;;;;;10.56;100.00;99716.03;5229894;28;20026;-68
2023/04/12 06:00:22;;;;;;;3.08;1.42;;;;;;;10.65;100.00;99719.53;5240943;28;20068;-69
2023/04/12 06:02:53;;;;;;;3.28;1.13;;;;;;;10.65;100.00;99716.91;5237250;28;20025;-69
2023/04/12 06:05:25;;;;;;;3.33;1.05;;;;;;;10.70;100.00;99719.84;5238189;28;20040;-69
2023/04/12 06:07:58;;;;;;;3.28;1.30;;;;;;;10.70;100.00;99714.63;5240046;28;20456;-69
2023/04/12 06:10:29;;;;;;;4.32;1.40;;;;;;;10.73;100.00;99716.94;5238317;28;20434;-68
2023/04/12 06:13:01;;;;;;;2.17;1.20;;;;;;;10.63;100.00;99714.44;5238197;28;20029;-68
2023/04/12 06:15:32;;;;;;;3.90;1.42;;;;;;;10.60;100.00;99713.91;5241957;28;20029;-69
2023/04/12 06:18:06;;;;;;;4.13;1.45;;;;;;;10.70;100.00;99714.63;5240881;28;20106;-68
2023/04/12 06:20:40;;;;;;;2.13;1.30;;;;;;;10.80;100.00;99717.94;5242001;28;20025;-69
2023/04/12 06:23:12;;;;;;;4.10;1.83;;;;;;;10.64;100.00;99718.66;5236439;28;20037;-69
2023/04/12 06:25:43;;;;;;;2.85;1.42;;;;;;;10.73;100.00;99709.06;5238153;28;20379;-68
2023/04/12 06:28:15;;;;;;;2.30;1.30;;;;;;;10.75;100.00;99716.75;5239345;28;20053;-68
2023/04/12 06:30:46;;;;;;;3.22;1.30;;;;;;;10.80;100.00;99706.63;5238099;28;20029;-68
2023/04/12 06:33:21;;;;;;;3.42;1.40;;;;;;;10.80;100.00;99711.88;5239382;28;20026;-68
2023/04/12 06:35:52;;;;;;;3.05;1.30;;;;;;;10.74;100.00;99708.06;5237932;28;20025;-68
2023/04/12 06:38:23;;;;;;;4.25;1.40;;;;;;;10.77;100.00;99707.78;5236609;28;20036;-68
2023/04/12 06:40:55;;;;;;;2.88;1.30;;;;;;;10.78;100.00;99704.16;5235918;28;20032;-68
2023/04/12 06:43:26;;;;;;;3.92;2.03;;;;;;;10.83;100.00;99703.69;5238177;28;20159;-68
2023/04/12 06:45:57;;;;;;;3.65;1.60;;;;;;;10.81;100.00;99700.41;5238742;28;20030;-68
2023/04/12 06:48:29;;;;;;;3.22;1.35;;;;;;;10.89;100.00;99709.09;5240672;28;20112;-68
2023/04/12 06:51:00;;;;;;;2.03;1.42;;;;;;;10.93;100.00;99713.03;5240801;28;20043;-68
2023/04/12 06:53:33;;;;;;;2.72;1.60;;;;;;;11.00;100.00;99710.59;5241120;28;20076;-67
2023/04/12 06:56:05;;;;;;;3.50;1.67;;;;;;;10.94;100.00;99711.25;5240577;28;20159;-68
2023/04/12 06:58:36;;;;;;;3.67;1.40;;;;;;;10.93;100.00;99710.44;5243364;28;20080;-68
2023/04/12 07:01:12;;;;;;;2.53;1.65;;;;;;;10.99;100.00;99716.03;5243671;28;20029;-68
2023/04/12 07:03:43;;;;;;;3.10;1.63;;;;;;;11.00;100.00;99717.66;5247347;28;20193;-68
2023/04/12 07:06:15;;;;;;;3.55;1.83;;;;;;;11.04;100.00;99714.56;5242904;28;21285;-68
2023/04/12 07:08:47;;;;;;;4.22;1.73;;;;;;;11.07;100.00;99709.00;5245063;28;20032;-68
2023/04/12 07:11:21;;;;;;;4.95;1.60;;;;;;;11.10;100.00;99710.44;5241533;28;20470;-68
2023/04/12 07:13:52;;;;;;;3.35;2.00;;;;;;;11.05;100.00;99712.75;5246268;28;20028;-68
2023/04/12 07:16:24;;;;;;;3.42;1.52;;;;;;;11.03;100.00;99715.53;5249049;28;20025;-68
2023/04/12 07:18:55;;;;;;;4.68;2.20;;;;;;;11.12;100.00;99708.50;5248322;28;20056;-68
2023/04/12 07:21:27;;;;;;;4.55;1.65;;;;;;;11.17;100.00;99708.81;5246613;28;20044;-68
2023/04/12 07:23:58;;;;;;;4.35;1.92;;;;;;;11.20;100.00;99713.75;5243731;28;20113;-68
2023/04/12 07:26:30;;;;;;;3.63;2.00;;;;;;;11.20;100.00;99716.38;5242212;28;20032;-68
2023/04/12 07:29:02;;;;;;;3.65;1.90;;;;;;;11.23;100.00;99710.00;5243042;28;20080;-68
2023/04/12 07:31:34;;;;;;;3.13;1.73;;;;;;;11.31;100.00;99716.06;5239375;28;20467;-68
2023/04/12 07:34:05;;;;;;;4.72;1.70;;;;;;;11.32;100.00;99715.06;5245188;28;20017;-68
2023/04/12 07:36:37;;;;;;;3.88;2.00;;;;;;;11.33;100.00;99711.50;5243381;28;20365;-68
2023/04/12 07:39:11;;;;;;;3.95;2.00;;;;;;;11.40;100.00;99695.91;5243191;28;20124;-68
2023/04/12 07:41:45;;;;;;;4.97;2.10;;;;;;;11.52;100.00;99701.66;5241214;28;20025;-68
2023/04/12 07:44:17;;;;;;;7.60;2.45;;;;;;;11.51;100.00;99700.81;5236622;28;20489;-68
2023/04/12 07:46:48;;;;;;;4.60;2.27;;;;;;;11.53;100.00;99700.66;5242944;28;20035;-68
2023/04/12 07:49:20;;;;;;;4.55;2.20;;;;;;;11.56;100.00;99692.47;5240748;28;20037;-68
2023/04/12 07:51:51;;;;;;;5.55;2.40;;;;;;;11.62;100.00;99695.25;5238977;28;20026;-69
2023/04/12 07:54:28;;;;;;;4.63;2.00;;;;;;;11.73;100.00;99693.28;5242232;28;20028;-68
2023/04/12 07:57:02;;;;;;;4.65;2.22;;;;;;;11.61;100.00;99698.84;5240913;28;20098;-69
2023/04/12 07:59:33;;;;;;;5.85;2.25;;;;;;;11.63;100.00;99702.16;5241461;28;20098;-68
2023/04/12 08:02:05;;;;;;;5.13;2.40;;;;;;;11.67;100.00;99705.25;5237977;28;20026;-68
2023/04/12 08:04:37;;;;;;;5.00;2.22;;;;;;;11.58;100.00;99701.00;5241730;28;20116;-69
2023/04/12 08:07:08;;;;;;;7.22;2.50;;;;;;;11.70;100.00;99694.41;5241746;28;20116;-68
2023/04/12 08:09:39;;;;;;;5.60;3.00;;;;;;;11.72;100.00;99692.47;5238826;28;20026;-68
2023/04/12 08:12:11;;;;;;;5.22;2.60;;;;;;;11.73;100.00;99706.41;5245906;28;20039;-70
2023/04/12 08:14:42;;;;;;;6.88;3.25;;;;;;;11.77;100.00;99713.75;5248339;28;20429;-69
2023/04/12 08:17:15;;;;;;;8.57;3.25;;;;;;;11.68;100.00;99723.44;5242100;28;20726;-68
2023/04/12 08:19:46;;;;;;;7.13;3.15;;;;;;;11.69;100.00;99705.91;5244013;28;20692;-69
2023/04/12 08:22:18;;;;;;;7.28;3.78;;;;;;;11.66;100.00;99699.16;5247426;28;20040;-69
2023/04/12 08:24:49;;;;;;;4.60;3.22;;;;;;;11.80;100.00;99708.19;5247044;28;20025;-68
2023/04/12 08:27:20;;;;;;;4.70;3.53;;;;;;;11.93;100.00;99703.31;5244807;28;20431;-69
2023/04/12 08:29:52;;;;;;;4.78;3.10;;;;;;;12.00;100.00;99707.84;5248163;28;20383;-69
2023/04/12 08:32:23;;;;;;;4.50;2.95;;;;;;;11.98;100.00;99715.91;5245825;28;20159;-68
2023/04/12 08:34:54;;;;;;;7.03;3.40;;;;;;;12.16;100.00;99716.53;5244852;28;20021;-69
2023/04/12 08:37:26;;;;;;;6.38;3.55;;;;;;;12.05;100.00;99709.00;5244131;28;20227;-69
2023/04/12 08:40:07;;;;;;;10.50;4.18;;;;;;;12.40;100.00;99704.31;5243307;28;20079;-69
2023/04/12 08:42:38;;;;;;;6.45;3.90;;;;;;;12.26;100.00;99697.13;5241374;28;20025;-68
2023/04/12 08:45:11;;;;;;;7.30;3.95;;;;;;;12.34;100.00;99689.22;5243285;28;20037;-68
2023/04/12 08:47:43;;;;;;;8.60;4.22;;;;;;;12.63;100.00;99694.69;5245306;28;20379;-69
2023/04/12 08:50:16;;;;;;;11.88;5.22;;;;;;;12.64;100.00;99687.63;5238882;28;20024;-69
2023/04/12 08:52:48;;;;;;;8.25;4.97;;;;;;;12.73;100.00;99704.16;5244294;28;20651;-69
2023/04/12 08:55:19;;;;;;;9.82;5.13;;;;;;;13.03;100.00;99702.50;5246869;28;20425;-69
2023/04/12 08:57:57;;;;;;;8.15;4.82;;;;;;;13.31;100.00;99706.31;5243636;28;20087;-69
2023/04/12 09:00:28;;;;;;;10.32;5.30;;;;;;;13.26;100.00;99708.66;5238404;28;20021;-69
2023/04/12 09:03:00;;;;;;;9.20;4.93;;;;;;;13.22;100.00;99704.72;5240660;28;20058;-69
2023/04/12 09:05:32;;;;;;;11.90;5.13;;;;;;;13.15;100.00;99701.16;5241781;28;20418;-69
2023/04/12 09:08:04;;;;;;;9.95;4.63;;;;;;;13.26;100.00;99692.88;5239350;28;20028;-68
2023/04/12 09:10:37;;;;;;;8.93;4.70;;;;;;;13.34;100.00;99695.44;5239007;28;20091;-69
2023/04/12 09:13:08;;;;;;;9.98;4.70;;;;;;;13.34;100.00;99692.00;5243860;28;20402;-68
2023/04/12 09:15:49;;;;;;;9.73;4.38;;;;;;;13.52;100.00;99675.88;5240103;28;20028;-69
2023/04/12 09:18:22;;;;;;;12.43;5.25;;;;;;;13.43;100.00;99675.16;5242043;28;20024;-69
2023/04/12 09:21:07;;;;;;;11.40;5.10;;;;;;;13.80;100.00;99678.78;5242176;28;20036;-69
2023/04/12 09:23:38;;;;;;;11.40;4.45;;;;;;;13.76;100.00;99670.41;5241931;28;20570;-69
2023/04/12 09:26:27;;;;;;;14.30;6.28;;;;;;;14.39;100.00;99675.31;5240336;28;20036;-69
2023/04/12 09:28:58;;;;;;;11.00;4.90;;;;;;;14.38;100.00;99673.69;5243901;28;20032;-69
2023/04/12 09:31:30;;;;;;;13.10;6.65;;;;;;;14.71;100.00;99674.94;5239630;28;20272;-69
2023/04/12 09:34:07;;;;;;;15.45;5.72;;;;;;;14.54;100.00;99657.69;5240024;28;20045;-69
2023/04/12 09:36:39;;;;;;;12.95;4.63;;;;;;;14.29;100.00;99672.97;5243667;28;20039;-69
2023/04/12 09:39:11;;;;;;;12.18;5.13;;;;;;;14.36;100.00;99677.34;5245313;28;20118;-69
2023/04/12 09:41:42;;;;;;;19.55;5.38;;;;;;;14.28;100.00;99677.44;5241777;28;20116;-69
2023/04/12 09:44:29;;;;;;;11.68;4.72;;;;;;;14.63;100.00;99676.88;5241240;28;20030;-69
2023/04/12 09:47:03;;;;;;;14.95;4.93;;;;;;;14.02;100.00;99670.00;5242261;28;20444;-69
2023/04/12 09:49:39;;;;;;;11.80;4.00;;;;;;;14.14;100.00;99664.28;5246966;28;20029;-69
2023/04/12 09:52:12;;;;;;;17.60;4.88;;;;;;;13.87;100.00;99666.53;5242500;28;20037;-69
2023/04/12 09:54:45;;;;;;;15.30;4.70;;;;;;;13.79;100.00;99666.63;5245435;28;20033;-69
2023/04/12 09:57:19;;;;;;;;;;;;;;;14.62;100.00;99662.03;5242737;28;20028;-68
2023/04/12 09:59:52;;;;;;;17.63;3.88;;;;;;;13.87;100.00;99666.53;5243058;28;20363;-69
2023/04/12 10:02:26;;;;;;;12.88;4.60;;;;;;;13.82;100.00;99656.50;5243650;28;20044;-69
2023/04/12 10:04:57;;;;;;;14.02;4.75;;;;;;;13.65;100.00;99651.63;5243813;28;20053;-69
2023/04/12 10:07:29;;;;;;;17.15;4.32;;;;;;;13.65;100.00;99662.13;5244735;28;20043;-69
2023/04/12 10:10:03;;;;;;;15.45;3.80;;;;;;;13.50;100.00;99670.00;5238970;28;20614;-69
2023/04/12 10:12:36;;;;;;;16.85;3.90;;;;;;;13.55;100.00;99668.47;5238770;28;20022;-69
2023/04/12 10:15:12;;;;;;;12.70;4.35;;;;;;;13.62;100.00;99679.09;5240241;28;20021;-70
2023/04/12 10:17:53;;;;;;;14.75;4.07;;;;;;;13.78;100.00;99684.19;5237627;28;20037;-69
2023/04/12 10:20:25;;;;;;;15.65;3.95;;;;;;;13.64;100.00;99677.13;5242546;28;20545;-69
2023/04/12 10:22:58;;;;;;;15.35;4.53;;;;;;;13.59;100.00;99679.44;5236148;28;20024;-69
2023/04/12 10:25:30;;;;;;;14.30;3.80;;;;;;;13.56;100.00;99678.00;5242588;28;20029;-69
2023/04/12 10:28:16;;;;;;;13.88;4.25;;;;;;;13.81;100.00;99677.78;5243119;28;20033;-69
2023/04/12 10:30:49;;;;;;;13.63;4.07;;;;;;;13.44;100.00;99675.97;5245021;28;20037;-68
2023/04/12 10:33:26;;;;;;;19.20;4.22;;;;;;;13.53;100.00;99682.81;5247771;28;20033;-69
2023/04/12 10:36:02;;;;;;;14.45;3.60;;;;;;;13.39;96.22;99684.38;5246582;28;20024;-69
2023/04/12 10:38:46;;;;;;;15.32;3.47;;;;;;;13.57;100.00;99690.16;5248094;28;20024;-68
2023/04/12 10:41:19;;;;;;;13.85;3.70;;;;;;;13.28;93.77;99690.88;5243914;28;20025;-69
2023/04/12 10:43:51;;;;;;;13.18;3.15;;;;;;;13.21;96.66;99691.72;5247718;28;20384;-68
2023/04/12 10:46:36;;;;;;;13.02;3.50;;;;;;;13.36;100.00;99690.00;5246895;28;20025;-67
2023/04/12 10:49:09;;;;;;;14.55;3.53;;;;;;;13.06;100.00;99699.53;5248742;28;20037;-68
2023/04/12 10:52:10;;;;;;;11.32;3.33;;;;;;;13.38;100.00;99698.53;5248138;28;20029;-68
2023/04/12 10:54:42;;;;;;;13.15;3.30;;;;;;;12.92;100.00;99695.88;5247267;28;20044;-68
2023/04/12 10:57:46;;;;;;;13.50;4.18;;;;;;;13.29;100.00;99689.06;5248249;28;20070;-69
2023/04/12 11:00:17;;;;;;;13.45;4.00;;;;;;;12.99;100.00;99695.97;5248928;28;20055;-69
2023/04/12 11:03:07;;;;;;;17.90;5.05;;;;;;;13.20;100.00;99701.44;5247330;28;20434;-68
2023/04/12 11:06:01;;;;;;;12.25;4.32;;;;;;;13.26;100.00;99699.94;5249648;28;20137;-69
2023/04/12 11:08:38;;;;;;;15.30;5.18;;;;;;;13.05;100.00;99703.19;5248063;28;20388;-68
2023/04/12 11:11:21;;;;;;;18.00;5.28;;;;;;;13.10;100.00;99700.81;5246907;28;20129;-68
2023/04/12 11:13:55;;;;;;;13.52;5.00;;;;;;;13.04;100.00;99710.25;5248672;28;20390;-69
2023/04/12 11:16:27;;;;;;;20.85;5.57;;;;;;;12.90;100.00;99705.72;5245961;28;20108;-68
2023/04/12 11:18:59;;;;;;;13.95;5.15;;;;;;;13.02;100.00;99714.03;5246732;28;20082;-69
2023/04/12 11:21:30;;;;;;;16.13;4.93;;;;;;;13.01;100.00;99720.28;5244451;28;20025;-69
2023/04/12 11:24:02;;;;;;;14.30;4.40;;;;;;;12.82;100.00;99703.97;5245361;28;20031;-69
2023/04/12 11:26:34;;;;;;;12.07;3.63;;;;;;;12.79;100.00;99691.16;5243274;28;20036;-69
2023/04/12 11:29:07;;;;;;;13.27;4.60;;;;;;;12.91;100.00;99687.13;5245379;28;20387;-69
2023/04/12 11:31:38;;;;;;;16.90;4.45;;;;;;;12.99;100.00;99693.34;5245613;28;20857;-69
2023/04/12 11:34:09;;;;;;;17.08;4.43;;;;;;;13.20;100.00;99690.91;5246444;28;20029;-69
2023/04/12 11:36:40;;;;;;;13.85;4.03;;;;;;;13.51;100.00;99684.78;5248059;28;20048;-69
2023/04/12 11:39:13;;;;;;;12.88;3.83;;;;;;;13.63;100.00;99678.91;5248333;28;20103;-68
2023/04/12 11:41:45;;;;;;;12.00;4.10;;;;;;;13.76;100.00;99683.56;5245300;28;20029;-68
2023/04/12 11:44:18;;;;;;;11.27;3.72;;;;;;;13.90;100.00;99681.13;5244193;28;20023;-68
2023/04/12 11:46:50;;;;;;;12.48;3.53;;;;;;;14.09;100.00;99686.72;5248680;28;20025;-69
2023/04/12 11:49:22;;;;;;;12.68;4.15;;;;;;;14.07;100.00;99683.41;5245420;28;20055;-69